sensor_id;sensor_type;location;lat;lon;timestamp;temperature;humidity
32749;DHT22;19119;52.474;13.710;2023-06-22T00:00:49;19.40;99.90
32749;DHT22;19119;52.474;13.710;2023-06-22T00:03:14;19.40;99.90
32749;DHT22;19119;52.474;13.710;2023-06-22T00:05:40;19.40;99.90
32749;DHT22;19119;52.474;13.710;2023-06-22T00:08:05;19.40;99.90
32749;DHT22;19119;52.474;13.710;2023-06-22T00:10:31;19.40;99.90
32749;DHT22;19119;52.474;13.710;2023-06-22T00:12:57;19.30;99.90
32749;DHT22;19119;52.474;13.710;2023-06-22T00:15:22;19.30;99.90
32749;DHT22;19119;52.474;13.710;2023-06-22T00:17:49;19.20;99.90
32749;DHT22;19119;52.474;13.710;2023-06-22T00:20:15;19.20;99.90
32749;DHT22;19119;52.474;13.710;2023-06-22T00:22:42;19.10;99.90
32749;DHT22;19119;52.474;13.710;2023-06-22T00:25:08;19.10;99.90
32749;DHT22;19119;52.474;13.710;2023-06-22T00:27:34;19.10;99.90
32749;DHT22;19119;52.474;13.710;2023-06-22T00:30:00;19.10;99.90
32749;DHT22;19119;52.474;13.710;2023-06-22T00:32:25;19.10;99.90
32749;DHT22;19119;52.474;13.710;2023-06-22T00:34:51;19.00;99.90
32749;DHT22;19119;52.474;13.710;2023-06-22T00:37:18;18.90;99.90
32749;DHT22;19119;52.474;13.710;2023-06-22T00:39:44;18.90;99.90
32749;DHT22;19119;52.474;13.710;2023-06-22T00:42:09;18.90;99.90
32749;DHT22;19119;52.474;13.710;2023-06-22T00:44:36;18.90;99.90
32749;DHT22;19119;52.474;13.710;2023-06-22T00:47:02;18.90;99.90
32749;DHT22;19119;52.474;13.710;2023-06-22T00:49:28;18.90;99.90
32749;DHT22;19119;52.474;13.710;2023-06-22T00:51:55;18.80;99.90
32749;DHT22;19119;52.474;13.710;2023-06-22T00:54:21;18.80;99.90
32749;DHT22;19119;52.474;13.710;2023-06-22T00:56:53;18.80;99.90
32749;DHT22;19119;52.474;13.710;2023-06-22T00:59:23;18.70;99.90
32749;DHT22;19119;52.474;13.710;2023-06-22T01:01:48;18.70;99.90
32749;DHT22;19119;52.474;13.710;2023-06-22T01:04:15;18.70;99.90
32749;DHT22;19119;52.474;13.710;2023-06-22T01:06:47;18.60;99.90
32749;DHT22;19119;52.474;13.710;2023-06-22T01:09:21;18.60;99.90
32749;DHT22;19119;52.474;13.710;2023-06-22T01:11:57;18.60;99.90
32749;DHT22;19119;52.474;13.710;2023-06-22T01:14:40;18.60;99.90
32749;DHT22;19119;52.474;13.710;2023-06-22T01:17:08;18.60;99.90
32749;DHT22;19119;52.474;13.710;2023-06-22T01:19:43;18.60;99.90
32749;DHT22;19119;52.474;13.710;2023-06-22T01:22:10;18.70;99.90
32749;DHT22;19119;52.474;13.710;2023-06-22T01:25:09;18.60;99.90
32749;DHT22;19119;52.474;13.710;2023-06-22T01:28:05;18.50;99.90
32749;DHT22;19119;52.474;13.710;2023-06-22T01:30:34;18.40;99.90
32749;DHT22;19119;52.474;13.710;2023-06-22T01:33:01;18.50;99.90
32749;DHT22;19119;52.474;13.710;2023-06-22T01:35:28;18.50;99.90
32749;DHT22;19119;52.474;13.710;2023-06-22T01:37:54;18.40;99.90
32749;DHT22;19119;52.474;13.710;2023-06-22T01:40:20;18.50;99.90
32749;DHT22;19119;52.474;13.710;2023-06-22T01:42:46;18.40;99.90
32749;DHT22;19119;52.474;13.710;2023-06-22T01:45:12;18.40;99.90
32749;DHT22;19119;52.474;13.710;2023-06-22T01:47:39;18.30;99.90
32749;DHT22;19119;52.474;13.710;2023-06-22T01:50:05;18.30;99.90
32749;DHT22;19119;52.474;13.710;2023-06-22T01:52:31;18.30;99.90
32749;DHT22;19119;52.474;13.710;2023-06-22T01:54:59;18.30;99.90
32749;DHT22;19119;52.474;13.710;2023-06-22T01:57:25;18.30;99.90
32749;DHT22;19119;52.474;13.710;2023-06-22T02:00:20;18.30;99.90
32749;DHT22;19119;52.474;13.710;2023-06-22T02:02:56;18.30;99.90
32749;DHT22;19119;52.474;13.710;2023-06-22T02:05:26;18.30;99.90
32749;DHT22;19119;52.474;13.710;2023-06-22T02:08:03;18.30;99.90
32749;DHT22;19119;52.474;13.710;2023-06-22T02:10:32;18.30;99.90
32749;DHT22;19119;52.474;13.710;2023-06-22T02:13:05;18.30;99.90
32749;DHT22;19119;52.474;13.710;2023-06-22T02:15:31;18.20;99.90
32749;DHT22;19119;52.474;13.710;2023-06-22T02:17:57;18.30;99.90
32749;DHT22;19119;52.474;13.710;2023-06-22T02:20:24;18.30;99.90
32749;DHT22;19119;52.474;13.710;2023-06-22T02:22:50;18.30;99.90
32749;DHT22;19119;52.474;13.710;2023-06-22T02:25:15;18.30;99.90
32749;DHT22;19119;52.474;13.710;2023-06-22T02:27:41;18.20;99.90
32749;DHT22;19119;52.474;13.710;2023-06-22T02:30:08;18.20;99.90
32749;DHT22;19119;52.474;13.710;2023-06-22T02:32:34;18.10;99.90
32749;DHT22;19119;52.474;13.710;2023-06-22T02:35:00;18.10;99.90
32749;DHT22;19119;52.474;13.710;2023-06-22T02:37:29;18.20;99.90
32749;DHT22;19119;52.474;13.710;2023-06-22T02:39:55;18.20;99.90
32749;DHT22;19119;52.474;13.710;2023-06-22T02:42:20;18.20;99.90
32749;DHT22;19119;52.474;13.710;2023-06-22T02:44:47;18.20;99.90
32749;DHT22;19119;52.474;13.710;2023-06-22T02:47:12;18.20;99.90
32749;DHT22;19119;52.474;13.710;2023-06-22T02:49:38;18.30;99.90
32749;DHT22;19119;52.474;13.710;2023-06-22T02:52:03;18.30;99.90
32749;DHT22;19119;52.474;13.710;2023-06-22T02:54:29;18.30;99.90
32749;DHT22;19119;52.474;13.710;2023-06-22T02:56:54;18.30;99.90
32749;DHT22;19119;52.474;13.710;2023-06-22T02:59:20;18.30;99.90
32749;DHT22;19119;52.474;13.710;2023-06-22T03:01:49;18.40;99.90
32749;DHT22;19119;52.474;13.710;2023-06-22T03:04:15;18.40;99.90
32749;DHT22;19119;52.474;13.710;2023-06-22T03:06:41;18.50;99.90
32749;DHT22;19119;52.474;13.710;2023-06-22T03:09:06;18.50;99.90
32749;DHT22;19119;52.474;13.710;2023-06-22T03:11:33;18.40;99.90
32749;DHT22;19119;52.474;13.710;2023-06-22T03:13:59;18.50;99.90
32749;DHT22;19119;52.474;13.710;2023-06-22T03:16:24;18.60;99.90
32749;DHT22;19119;52.474;13.710;2023-06-22T03:18:50;18.70;99.90
32749;DHT22;19119;52.474;13.710;2023-06-22T03:21:15;18.60;99.90
32749;DHT22;19119;52.474;13.710;2023-06-22T03:23:42;18.60;99.90
32749;DHT22;19119;52.474;13.710;2023-06-22T03:26:11;18.70;99.90
32749;DHT22;19119;52.474;13.710;2023-06-22T03:28:37;18.70;99.90
32749;DHT22;19119;52.474;13.710;2023-06-22T03:31:03;18.70;99.90
32749;DHT22;19119;52.474;13.710;2023-06-22T03:33:29;18.70;99.90
32749;DHT22;19119;52.474;13.710;2023-06-22T03:35:54;18.70;99.90
32749;DHT22;19119;52.474;13.710;2023-06-22T03:38:20;18.70;99.90
32749;DHT22;19119;52.474;13.710;2023-06-22T03:40:46;18.70;99.90
32749;DHT22;19119;52.474;13.710;2023-06-22T03:43:11;18.70;99.90
32749;DHT22;19119;52.474;13.710;2023-06-22T03:45:37;18.70;99.90
32749;DHT22;19119;52.474;13.710;2023-06-22T03:48:05;18.70;99.90
32749;DHT22;19119;52.474;13.710;2023-06-22T03:50:31;18.60;99.90
32749;DHT22;19119;52.474;13.710;2023-06-22T03:52:57;18.50;99.90
32749;DHT22;19119;52.474;13.710;2023-06-22T03:55:23;18.70;99.90
32749;DHT22;19119;52.474;13.710;2023-06-22T03:57:48;18.80;99.90
32749;DHT22;19119;52.474;13.710;2023-06-22T04:00:14;18.90;99.90
32749;DHT22;19119;52.474;13.710;2023-06-22T04:02:41;18.90;99.90
32749;DHT22;19119;52.474;13.710;2023-06-22T04:05:08;19.00;99.90
32749;DHT22;19119;52.474;13.710;2023-06-22T04:07:35;19.00;99.90
32749;DHT22;19119;52.474;13.710;2023-06-22T04:10:03;19.10;99.90
32749;DHT22;19119;52.474;13.710;2023-06-22T04:12:28;19.10;99.90
32749;DHT22;19119;52.474;13.710;2023-06-22T04:14:54;19.10;99.90
32749;DHT22;19119;52.474;13.710;2023-06-22T04:17:22;19.20;99.90
32749;DHT22;19119;52.474;13.710;2023-06-22T04:19:50;19.40;99.90
32749;DHT22;19119;52.474;13.710;2023-06-22T04:22:15;19.80;99.90
32749;DHT22;19119;52.474;13.710;2023-06-22T04:24:41;20.00;99.90
32749;DHT22;19119;52.474;13.710;2023-06-22T04:27:06;20.20;99.90
32749;DHT22;19119;52.474;13.710;2023-06-22T04:29:32;20.50;99.90
32749;DHT22;19119;52.474;13.710;2023-06-22T04:31:57;20.40;99.90
32749;DHT22;19119;52.474;13.710;2023-06-22T04:34:24;20.60;99.90
32749;DHT22;19119;52.474;13.710;2023-06-22T04:36:51;21.00;99.90
32749;DHT22;19119;52.474;13.710;2023-06-22T04:39:17;21.10;99.90
32749;DHT22;19119;52.474;13.710;2023-06-22T04:41:44;21.40;99.90
32749;DHT22;19119;52.474;13.710;2023-06-22T04:44:13;21.50;99.90
32749;DHT22;19119;52.474;13.710;2023-06-22T04:46:39;21.70;99.90
32749;DHT22;19119;52.474;13.710;2023-06-22T04:49:09;21.80;99.90
32749;DHT22;19119;52.474;13.710;2023-06-22T04:51:41;22.10;99.90
32749;DHT22;19119;52.474;13.710;2023-06-22T04:54:08;22.20;99.90
32749;DHT22;19119;52.474;13.710;2023-06-22T04:56:34;22.40;99.90
32749;DHT22;19119;52.474;13.710;2023-06-22T04:59:01;22.40;99.90
32749;DHT22;19119;52.474;13.710;2023-06-22T05:01:26;22.40;99.90
32749;DHT22;19119;52.474;13.710;2023-06-22T05:03:52;22.60;99.90
32749;DHT22;19119;52.474;13.710;2023-06-22T05:06:21;22.80;99.90
32749;DHT22;19119;52.474;13.710;2023-06-22T05:08:53;22.90;99.90
32749;DHT22;19119;52.474;13.710;2023-06-22T05:11:26;23.00;99.90
32749;DHT22;19119;52.474;13.710;2023-06-22T05:13:51;23.20;99.90
32749;DHT22;19119;52.474;13.710;2023-06-22T05:16:17;23.10;99.90
32749;DHT22;19119;52.474;13.710;2023-06-22T05:18:43;22.90;99.90
32749;DHT22;19119;52.474;13.710;2023-06-22T05:21:09;23.00;99.90
32749;DHT22;19119;52.474;13.710;2023-06-22T05:23:34;23.30;99.90
32749;DHT22;19119;52.474;13.710;2023-06-22T05:26:00;23.60;99.90
32749;DHT22;19119;52.474;13.710;2023-06-22T05:28:25;23.30;99.90
32749;DHT22;19119;52.474;13.710;2023-06-22T05:30:51;23.40;99.90
32749;DHT22;19119;52.474;13.710;2023-06-22T05:33:16;23.60;99.90
32749;DHT22;19119;52.474;13.710;2023-06-22T05:35:42;23.80;99.90
32749;DHT22;19119;52.474;13.710;2023-06-22T05:38:07;24.10;99.90
32749;DHT22;19119;52.474;13.710;2023-06-22T05:40:33;24.00;99.90
32749;DHT22;19119;52.474;13.710;2023-06-22T05:42:58;24.00;99.90
32749;DHT22;19119;52.474;13.710;2023-06-22T05:45:26;24.00;99.90
32749;DHT22;19119;52.474;13.710;2023-06-22T05:47:52;23.80;99.90
32749;DHT22;19119;52.474;13.710;2023-06-22T05:50:17;23.90;99.90
32749;DHT22;19119;52.474;13.710;2023-06-22T05:52:44;23.90;99.90
32749;DHT22;19119;52.474;13.710;2023-06-22T05:55:09;23.80;99.90
32749;DHT22;19119;52.474;13.710;2023-06-22T05:57:41;23.50;99.90
32749;DHT22;19119;52.474;13.710;2023-06-22T06:00:07;23.50;99.90
32749;DHT22;19119;52.474;13.710;2023-06-22T06:02:36;23.60;99.90
32749;DHT22;19119;52.474;13.710;2023-06-22T06:05:02;23.70;99.90
32749;DHT22;19119;52.474;13.710;2023-06-22T06:07:28;24.00;99.90
32749;DHT22;19119;52.474;13.710;2023-06-22T06:09:53;24.00;99.90
32749;DHT22;19119;52.474;13.710;2023-06-22T06:12:19;24.10;99.90
32749;DHT22;19119;52.474;13.710;2023-06-22T06:14:44;24.00;99.90
32749;DHT22;19119;52.474;13.710;2023-06-22T06:17:09;24.30;99.90
32749;DHT22;19119;52.474;13.710;2023-06-22T06:19:35;24.40;99.90
32749;DHT22;19119;52.474;13.710;2023-06-22T06:22:00;24.50;99.90
32749;DHT22;19119;52.474;13.710;2023-06-22T06:24:26;24.60;99.90
32749;DHT22;19119;52.474;13.710;2023-06-22T06:26:51;24.90;99.90
32749;DHT22;19119;52.474;13.710;2023-06-22T06:29:17;24.90;99.90
32749;DHT22;19119;52.474;13.710;2023-06-22T06:31:44;25.10;99.90
32749;DHT22;19119;52.474;13.710;2023-06-22T06:34:09;24.90;99.90
32749;DHT22;19119;52.474;13.710;2023-06-22T06:36:35;24.70;99.90
32749;DHT22;19119;52.474;13.710;2023-06-22T06:39:01;24.80;99.90
32749;DHT22;19119;52.474;13.710;2023-06-22T06:41:26;25.10;99.90
32749;DHT22;19119;52.474;13.710;2023-06-22T06:43:52;25.20;99.90
32749;DHT22;19119;52.474;13.710;2023-06-22T06:46:17;25.40;99.90
32749;DHT22;19119;52.474;13.710;2023-06-22T06:48:44;25.40;99.90
32749;DHT22;19119;52.474;13.710;2023-06-22T06:51:13;25.70;99.90
32749;DHT22;19119;52.474;13.710;2023-06-22T06:53:38;26.10;99.90
32749;DHT22;19119;52.474;13.710;2023-06-22T06:56:04;25.90;99.90
32749;DHT22;19119;52.474;13.710;2023-06-22T06:58:30;25.90;99.90
32749;DHT22;19119;52.474;13.710;2023-06-22T07:00:56;26.10;99.90
32749;DHT22;19119;52.474;13.710;2023-06-22T07:03:21;26.10;99.90
32749;DHT22;19119;52.474;13.710;2023-06-22T07:05:50;25.80;99.90
32749;DHT22;19119;52.474;13.710;2023-06-22T07:08:15;25.50;99.90
32749;DHT22;19119;52.474;13.710;2023-06-22T07:10:40;25.60;99.90
32749;DHT22;19119;52.474;13.710;2023-06-22T07:13:06;25.90;99.90
32749;DHT22;19119;52.474;13.710;2023-06-22T07:15:32;26.50;99.90
32749;DHT22;19119;52.474;13.710;2023-06-22T07:17:57;26.60;99.90
32749;DHT22;19119;52.474;13.710;2023-06-22T07:20:22;26.80;99.90
32749;DHT22;19119;52.474;13.710;2023-06-22T07:22:48;27.00;99.90
32749;DHT22;19119;52.474;13.710;2023-06-22T07:25:14;26.70;99.90
32749;DHT22;19119;52.474;13.710;2023-06-22T07:27:44;27.00;99.90
32749;DHT22;19119;52.474;13.710;2023-06-22T07:30:11;27.00;99.90
32749;DHT22;19119;52.474;13.710;2023-06-22T07:32:36;27.20;99.90
32749;DHT22;19119;52.474;13.710;2023-06-22T07:35:02;26.90;99.90
32749;DHT22;19119;52.474;13.710;2023-06-22T07:37:28;27.00;99.90
32749;DHT22;19119;52.474;13.710;2023-06-22T07:39:55;27.10;99.90
32749;DHT22;19119;52.474;13.710;2023-06-22T07:42:27;27.10;99.90
32749;DHT22;19119;52.474;13.710;2023-06-22T07:44:58;27.20;99.90
32749;DHT22;19119;52.474;13.710;2023-06-22T07:47:23;27.10;99.40
32749;DHT22;19119;52.474;13.710;2023-06-22T07:49:51;27.10;99.90
32749;DHT22;19119;52.474;13.710;2023-06-22T07:52:20;27.10;99.70
32749;DHT22;19119;52.474;13.710;2023-06-22T07:54:46;27.00;99.50
32749;DHT22;19119;52.474;13.710;2023-06-22T07:57:11;27.00;99.90
32749;DHT22;19119;52.474;13.710;2023-06-22T07:59:37;26.90;99.90
32749;DHT22;19119;52.474;13.710;2023-06-22T08:02:03;26.90;99.60
32749;DHT22;19119;52.474;13.710;2023-06-22T08:04:29;26.80;97.70
32749;DHT22;19119;52.474;13.710;2023-06-22T08:06:56;26.80;98.10
32749;DHT22;19119;52.474;13.710;2023-06-22T08:09:22;26.90;99.50
32749;DHT22;19119;52.474;13.710;2023-06-22T08:11:48;26.90;99.40
32749;DHT22;19119;52.474;13.710;2023-06-22T08:14:14;26.90;99.30
32749;DHT22;19119;52.474;13.710;2023-06-22T08:16:41;26.80;98.90
32749;DHT22;19119;52.474;13.710;2023-06-22T08:19:07;26.70;98.00
32749;DHT22;19119;52.474;13.710;2023-06-22T08:21:32;26.60;97.80
32749;DHT22;19119;52.474;13.710;2023-06-22T08:23:58;26.90;98.70
32749;DHT22;19119;52.474;13.710;2023-06-22T08:26:24;26.70;98.70
32749;DHT22;19119;52.474;13.710;2023-06-22T08:28:49;26.80;99.40
32749;DHT22;19119;52.474;13.710;2023-06-22T08:31:14;26.90;98.80
32749;DHT22;19119;52.474;13.710;2023-06-22T08:33:40;27.00;98.40
32749;DHT22;19119;52.474;13.710;2023-06-22T08:36:06;27.10;98.40
32749;DHT22;19119;52.474;13.710;2023-06-22T08:38:33;27.20;98.90
32749;DHT22;19119;52.474;13.710;2023-06-22T08:40:58;27.30;98.40
32749;DHT22;19119;52.474;13.710;2023-06-22T08:43:26;27.20;97.40
32749;DHT22;19119;52.474;13.710;2023-06-22T08:45:51;27.00;97.80
32749;DHT22;19119;52.474;13.710;2023-06-22T08:48:17;27.10;97.30
32749;DHT22;19119;52.474;13.710;2023-06-22T08:50:42;27.10;97.60
32749;DHT22;19119;52.474;13.710;2023-06-22T08:53:07;27.00;97.10
32749;DHT22;19119;52.474;13.710;2023-06-22T08:55:33;27.00;97.50
32749;DHT22;19119;52.474;13.710;2023-06-22T08:57:59;27.00;97.60
32749;DHT22;19119;52.474;13.710;2023-06-22T09:00:24;26.90;97.30
32749;DHT22;19119;52.474;13.710;2023-06-22T09:02:50;26.80;96.80
32749;DHT22;19119;52.474;13.710;2023-06-22T09:05:16;26.90;98.00
32749;DHT22;19119;52.474;13.710;2023-06-22T09:07:41;27.00;98.20
32749;DHT22;19119;52.474;13.710;2023-06-22T09:10:07;27.00;98.20
32749;DHT22;19119;52.474;13.710;2023-06-22T09:12:33;27.00;97.90
32749;DHT22;19119;52.474;13.710;2023-06-22T09:15:00;27.00;97.60
32749;DHT22;19119;52.474;13.710;2023-06-22T09:17:26;26.90;97.60
32749;DHT22;19119;52.474;13.710;2023-06-22T09:19:52;27.00;97.50
32749;DHT22;19119;52.474;13.710;2023-06-22T09:22:18;27.20;97.60
32749;DHT22;19119;52.474;13.710;2023-06-22T09:24:43;27.80;98.60
32749;DHT22;19119;52.474;13.710;2023-06-22T09:27:08;27.90;96.40
32749;DHT22;19119;52.474;13.710;2023-06-22T09:29:34;27.80;96.00
32749;DHT22;19119;52.474;13.710;2023-06-22T09:32:00;28.00;96.80
32749;DHT22;19119;52.474;13.710;2023-06-22T09:34:26;28.30;96.20
32749;DHT22;19119;52.474;13.710;2023-06-22T09:36:51;28.40;95.50
32749;DHT22;19119;52.474;13.710;2023-06-22T09:39:18;28.40;97.00
32749;DHT22;19119;52.474;13.710;2023-06-22T09:41:43;28.60;94.60
32749;DHT22;19119;52.474;13.710;2023-06-22T09:44:09;28.30;94.70
32749;DHT22;19119;52.474;13.710;2023-06-22T09:46:35;28.10;94.70
32749;DHT22;19119;52.474;13.710;2023-06-22T09:49:00;28.00;95.20
32749;DHT22;19119;52.474;13.710;2023-06-22T09:51:26;28.00;95.50
32749;DHT22;19119;52.474;13.710;2023-06-22T09:53:51;28.10;95.30
32749;DHT22;19119;52.474;13.710;2023-06-22T09:56:18;27.90;95.50
32749;DHT22;19119;52.474;13.710;2023-06-22T09:58:45;28.20;95.40
32749;DHT22;19119;52.474;13.710;2023-06-22T10:01:11;28.30;95.90
32749;DHT22;19119;52.474;13.710;2023-06-22T10:03:37;28.20;95.50
32749;DHT22;19119;52.474;13.710;2023-06-22T10:06:03;28.00;95.50
32749;DHT22;19119;52.474;13.710;2023-06-22T10:08:29;28.20;95.40
32749;DHT22;19119;52.474;13.710;2023-06-22T10:10:54;27.90;95.80
32749;DHT22;19119;52.474;13.710;2023-06-22T10:13:20;28.30;96.10
32749;DHT22;19119;52.474;13.710;2023-06-22T10:15:46;28.30;94.50
32749;DHT22;19119;52.474;13.710;2023-06-22T10:18:15;28.80;96.90
32749;DHT22;19119;52.474;13.710;2023-06-22T10:20:41;28.80;95.30
32749;DHT22;19119;52.474;13.710;2023-06-22T10:23:07;29.00;95.10
32749;DHT22;19119;52.474;13.710;2023-06-22T10:25:32;29.10;94.60
32749;DHT22;19119;52.474;13.710;2023-06-22T10:27:58;29.40;94.80
32749;DHT22;19119;52.474;13.710;2023-06-22T10:30:23;29.50;94.90
32749;DHT22;19119;52.474;13.710;2023-06-22T10:32:49;29.50;94.50
32749;DHT22;19119;52.474;13.710;2023-06-22T10:35:15;29.50;96.50
32749;DHT22;19119;52.474;13.710;2023-06-22T10:37:43;29.50;94.00
32749;DHT22;19119;52.474;13.710;2023-06-22T10:40:09;29.40;94.00
32749;DHT22;19119;52.474;13.710;2023-06-22T10:42:34;29.40;93.10
32749;DHT22;19119;52.474;13.710;2023-06-22T10:45:00;29.30;92.90
32749;DHT22;19119;52.474;13.710;2023-06-22T10:47:26;29.40;94.00
32749;DHT22;19119;52.474;13.710;2023-06-22T10:49:51;29.40;94.30
32749;DHT22;19119;52.474;13.710;2023-06-22T10:52:16;29.60;93.50
32749;DHT22;19119;52.474;13.710;2023-06-22T10:54:42;29.40;93.40
32749;DHT22;19119;52.474;13.710;2023-06-22T10:57:07;29.40;94.00
32749;DHT22;19119;52.474;13.710;2023-06-22T10:59:33;29.70;94.60
32749;DHT22;19119;52.474;13.710;2023-06-22T11:01:58;29.80;93.40
32749;DHT22;19119;52.474;13.710;2023-06-22T11:04:24;30.00;94.00
32749;DHT22;19119;52.474;13.710;2023-06-22T11:06:50;30.20;93.70
32749;DHT22;19119;52.474;13.710;2023-06-22T11:09:16;30.60;92.60
32749;DHT22;19119;52.474;13.710;2023-06-22T11:11:51;30.80;92.50
32749;DHT22;19119;52.474;13.710;2023-06-22T11:14:18;30.50;92.30
32749;DHT22;19119;52.474;13.710;2023-06-22T11:16:44;30.70;93.50
32749;DHT22;19119;52.474;13.710;2023-06-22T11:19:09;30.50;93.10
32749;DHT22;19119;52.474;13.710;2023-06-22T11:21:35;30.70;92.20
32749;DHT22;19119;52.474;13.710;2023-06-22T11:24:00;30.70;91.90
32749;DHT22;19119;52.474;13.710;2023-06-22T11:26:26;30.50;92.50
32749;DHT22;19119;52.474;13.710;2023-06-22T11:28:55;30.50;92.40
32749;DHT22;19119;52.474;13.710;2023-06-22T11:31:20;30.30;92.70
32749;DHT22;19119;52.474;13.710;2023-06-22T11:33:46;30.40;91.80
32749;DHT22;19119;52.474;13.710;2023-06-22T11:36:13;30.50;92.80
32749;DHT22;19119;52.474;13.710;2023-06-22T11:38:39;30.40;93.00
32749;DHT22;19119;52.474;13.710;2023-06-22T11:41:06;30.60;92.10
32749;DHT22;19119;52.474;13.710;2023-06-22T11:43:31;30.80;92.60
32749;DHT22;19119;52.474;13.710;2023-06-22T11:45:57;30.60;92.40
32749;DHT22;19119;52.474;13.710;2023-06-22T11:48:26;30.70;92.60
32749;DHT22;19119;52.474;13.710;2023-06-22T11:50:51;30.50;92.30
32749;DHT22;19119;52.474;13.710;2023-06-22T11:53:17;30.30;92.60
32749;DHT22;19119;52.474;13.710;2023-06-22T11:55:43;30.40;92.70
32749;DHT22;19119;52.474;13.710;2023-06-22T11:58:09;30.50;92.20
32749;DHT22;19119;52.474;13.710;2023-06-22T12:00:35;30.90;93.10
32749;DHT22;19119;52.474;13.710;2023-06-22T12:03:00;31.10;92.50
32749;DHT22;19119;52.474;13.710;2023-06-22T12:05:26;31.60;92.50
32749;DHT22;19119;52.474;13.710;2023-06-22T12:07:54;31.40;92.10
32749;DHT22;19119;52.474;13.710;2023-06-22T12:10:20;31.10;92.40
32749;DHT22;19119;52.474;13.710;2023-06-22T12:12:46;31.00;92.20
32749;DHT22;19119;52.474;13.710;2023-06-22T12:15:11;31.10;92.40
32749;DHT22;19119;52.474;13.710;2023-06-22T12:17:37;30.70;92.20
32749;DHT22;19119;52.474;13.710;2023-06-22T12:20:03;30.50;91.80
32749;DHT22;19119;52.474;13.710;2023-06-22T12:22:32;30.40;92.20
32749;DHT22;19119;52.474;13.710;2023-06-22T12:24:58;31.10;92.30
32749;DHT22;19119;52.474;13.710;2023-06-22T12:27:24;31.40;91.70
32749;DHT22;19119;52.474;13.710;2023-06-22T12:29:50;31.40;91.20
32749;DHT22;19119;52.474;13.710;2023-06-22T12:32:15;31.30;91.30
32749;DHT22;19119;52.474;13.710;2023-06-22T12:34:44;31.50;91.60
32749;DHT22;19119;52.474;13.710;2023-06-22T12:37:10;31.40;91.40
32749;DHT22;19119;52.474;13.710;2023-06-22T12:39:36;31.30;91.00
32749;DHT22;19119;52.474;13.710;2023-06-22T12:42:01;31.00;91.40
32749;DHT22;19119;52.474;13.710;2023-06-22T12:44:27;30.60;91.60
32749;DHT22;19119;52.474;13.710;2023-06-22T12:46:53;30.70;92.40
32749;DHT22;19119;52.474;13.710;2023-06-22T12:49:19;31.30;92.40
32749;DHT22;19119;52.474;13.710;2023-06-22T12:51:45;31.50;92.40
32749;DHT22;19119;52.474;13.710;2023-06-22T12:54:11;31.70;92.20
32749;DHT22;19119;52.474;13.710;2023-06-22T12:56:37;31.50;92.40
32749;DHT22;19119;52.474;13.710;2023-06-22T12:59:04;30.60;91.90
32749;DHT22;19119;52.474;13.710;2023-06-22T13:01:32;30.20;91.90
32749;DHT22;19119;52.474;13.710;2023-06-22T13:04:02;30.30;92.00
32749;DHT22;19119;52.474;13.710;2023-06-22T13:06:31;30.50;93.10
32749;DHT22;19119;52.474;13.710;2023-06-22T13:08:56;30.50;92.70
32749;DHT22;19119;52.474;13.710;2023-06-22T13:11:22;30.80;91.60
32749;DHT22;19119;52.474;13.710;2023-06-22T13:13:47;31.00;92.00
32749;DHT22;19119;52.474;13.710;2023-06-22T13:16:13;30.70;91.20
32749;DHT22;19119;52.474;13.710;2023-06-22T13:18:38;30.50;91.30
32749;DHT22;19119;52.474;13.710;2023-06-22T13:21:04;30.40;93.20
32749;DHT22;19119;52.474;13.710;2023-06-22T13:23:30;30.70;92.90
32749;DHT22;19119;52.474;13.710;2023-06-22T13:25:57;30.70;91.80
32749;DHT22;19119;52.474;13.710;2023-06-22T13:28:26;30.60;92.50
32749;DHT22;19119;52.474;13.710;2023-06-22T13:30:51;30.90;91.70
32749;DHT22;19119;52.474;13.710;2023-06-22T13:33:19;31.30;93.20
32749;DHT22;19119;52.474;13.710;2023-06-22T13:35:45;31.30;92.40
32749;DHT22;19119;52.474;13.710;2023-06-22T13:38:10;31.20;92.00
32749;DHT22;19119;52.474;13.710;2023-06-22T13:40:37;31.40;92.60
32749;DHT22;19119;52.474;13.710;2023-06-22T13:43:06;31.20;91.10
32749;DHT22;19119;52.474;13.710;2023-06-22T13:45:32;31.20;92.20
32749;DHT22;19119;52.474;13.710;2023-06-22T13:47:58;31.50;92.70
32749;DHT22;19119;52.474;13.710;2023-06-22T13:50:23;31.20;91.50
32749;DHT22;19119;52.474;13.710;2023-06-22T13:52:49;31.10;91.50
32749;DHT22;19119;52.474;13.710;2023-06-22T13:55:14;30.50;91.70
32749;DHT22;19119;52.474;13.710;2023-06-22T13:57:40;30.70;92.40
32749;DHT22;19119;52.474;13.710;2023-06-22T14:00:06;31.00;91.20
32749;DHT22;19119;52.474;13.710;2023-06-22T14:02:33;31.00;91.80
32749;DHT22;19119;52.474;13.710;2023-06-22T14:05:00;31.00;92.00
32749;DHT22;19119;52.474;13.710;2023-06-22T14:07:27;31.10;91.40
32749;DHT22;19119;52.474;13.710;2023-06-22T14:09:53;31.10;92.60
32749;DHT22;19119;52.474;13.710;2023-06-22T14:12:18;31.20;92.20
32749;DHT22;19119;52.474;13.710;2023-06-22T14:14:44;31.00;91.50
32749;DHT22;19119;52.474;13.710;2023-06-22T14:17:10;31.10;91.80
32749;DHT22;19119;52.474;13.710;2023-06-22T14:19:35;31.20;92.00
32749;DHT22;19119;52.474;13.710;2023-06-22T14:22:01;31.00;91.70
32749;DHT22;19119;52.474;13.710;2023-06-22T14:24:27;30.90;91.60
32749;DHT22;19119;52.474;13.710;2023-06-22T14:26:53;30.80;92.10
32749;DHT22;19119;52.474;13.710;2023-06-22T14:29:18;30.70;92.20
32749;DHT22;19119;52.474;13.710;2023-06-22T14:31:45;30.60;91.90
32749;DHT22;19119;52.474;13.710;2023-06-22T14:34:12;30.50;91.70
32749;DHT22;19119;52.474;13.710;2023-06-22T14:36:38;30.40;92.30
32749;DHT22;19119;52.474;13.710;2023-06-22T14:39:04;30.40;92.30
32749;DHT22;19119;52.474;13.710;2023-06-22T14:41:32;30.40;92.40
32749;DHT22;19119;52.474;13.710;2023-06-22T14:43:58;30.40;91.90
32749;DHT22;19119;52.474;13.710;2023-06-22T14:46:23;30.50;91.90
32749;DHT22;19119;52.474;13.710;2023-06-22T14:48:49;30.50;92.10
32749;DHT22;19119;52.474;13.710;2023-06-22T14:51:15;30.60;91.20
32749;DHT22;19119;52.474;13.710;2023-06-22T14:53:42;30.70;93.30
32749;DHT22;19119;52.474;13.710;2023-06-22T14:56:07;30.70;92.40
32749;DHT22;19119;52.474;13.710;2023-06-22T14:58:33;30.50;92.50
32749;DHT22;19119;52.474;13.710;2023-06-22T15:01:00;30.40;91.70
32749;DHT22;19119;52.474;13.710;2023-06-22T15:03:27;30.50;92.10
32749;DHT22;19119;52.474;13.710;2023-06-22T15:05:54;30.30;91.70
32749;DHT22;19119;52.474;13.710;2023-06-22T15:08:20;30.30;92.30
32749;DHT22;19119;52.474;13.710;2023-06-22T15:10:46;30.20;92.20